createdAt,value
2018-11-13T00:00:31.752Z,2.87
2018-11-13T00:03:05.693Z,3.10
2018-11-13T00:05:39.535Z,2.70
2018-11-13T00:08:13.420Z,3.97
2018-11-13T00:10:47.325Z,2.70
2018-11-13T00:13:21.165Z,2.90
2018-11-13T00:15:54.980Z,4.10
2018-11-13T00:18:29.829Z,3.73
2018-11-13T00:21:03.766Z,3.00
2018-11-13T00:23:37.718Z,3.27
2018-11-13T00:26:11.751Z,3.27
2018-11-13T00:28:45.598Z,3.63
2018-11-13T00:31:19.668Z,4.10
2018-11-13T00:33:54.142Z,3.27
2018-11-13T00:36:28.078Z,3.30
2018-11-13T00:39:01.961Z,4.30
2018-11-13T00:41:36.323Z,3.67
2018-11-13T00:44:11.324Z,4.13
2018-11-13T00:46:45.834Z,3.50
2018-11-13T00:49:20.255Z,3.53
2018-11-13T00:51:54.270Z,3.37
2018-11-13T00:54:28.108Z,5.13
2018-11-13T00:57:02.066Z,3.93
2018-11-13T00:59:35.953Z,3.33
2018-11-13T01:02:10.000Z,5.57
2018-11-13T01:04:43.862Z,4.30
2018-11-13T01:07:17.613Z,3.70
2018-11-13T01:09:51.538Z,3.73
2018-11-13T01:12:25.296Z,4.50
2018-11-13T01:14:58.900Z,3.13
2018-11-13T01:17:33.169Z,3.47
2018-11-13T01:20:07.016Z,3.87
2018-11-13T01:22:40.739Z,4.70
2018-11-13T01:25:15.538Z,3.80
2018-11-13T01:27:49.454Z,4.33
2018-11-13T01:30:23.344Z,4.10
2018-11-13T01:32:57.324Z,3.77
2018-11-13T01:35:31.085Z,4.90
2018-11-13T01:38:06.273Z,4.13
2018-11-13T01:40:39.967Z,3.17
2018-11-13T01:43:14.229Z,4.53
2018-11-13T01:45:47.886Z,3.37
2018-11-13T01:48:21.963Z,4.73
2018-11-13T01:50:55.912Z,4.00
2018-11-13T01:53:30.539Z,5.37
2018-11-13T01:56:04.861Z,4.03
2018-11-13T01:58:38.796Z,4.60
2018-11-13T02:01:12.800Z,5.67
2018-11-13T02:03:47.542Z,3.60
2018-11-13T02:06:22.152Z,4.47
2018-11-13T02:08:56.879Z,4.27
2018-11-13T02:11:31.004Z,4.93
2018-11-13T02:14:04.743Z,4.70
2018-11-13T02:16:38.415Z,8.37
2018-11-13T02:19:12.285Z,4.83
2018-11-13T02:21:46.771Z,5.70
2018-11-13T02:24:20.549Z,5.17
2018-11-13T02:26:54.303Z,4.43
2018-11-13T02:29:28.179Z,4.27
2018-11-13T02:32:02.101Z,4.73
2018-11-13T02:34:36.144Z,6.70
2018-11-13T02:37:10.728Z,5.67
2018-11-13T02:39:44.639Z,4.90
2018-11-13T02:42:19.047Z,3.87
2018-11-13T02:44:52.757Z,4.07
2018-11-13T02:47:26.761Z,4.47
2018-11-13T02:50:00.752Z,6.37
2018-11-13T02:52:35.571Z,5.00
2018-11-13T02:55:10.257Z,3.97
2018-11-13T02:57:44.829Z,3.80
2018-11-13T03:00:20.961Z,4.63
2018-11-13T03:02:55.512Z,5.27
2018-11-13T03:05:29.490Z,4.93
2018-11-13T03:08:03.355Z,5.23
2018-11-13T03:10:37.255Z,4.30
2018-11-13T03:13:11.188Z,4.17
2018-11-13T03:15:45.073Z,5.50
2018-11-13T03:18:18.909Z,3.97
2018-11-13T03:20:52.798Z,3.70
2018-11-13T03:23:26.720Z,4.07
2018-11-13T03:26:00.581Z,3.80
2018-11-13T03:28:34.289Z,3.83
2018-11-13T03:31:08.316Z,6.47
2018-11-13T03:33:42.046Z,5.63
2018-11-13T03:36:15.671Z,6.50
2018-11-13T03:38:49.615Z,3.70
2018-11-13T03:41:23.282Z,3.37
2018-11-13T03:43:57.218Z,3.70
2018-11-13T03:46:30.860Z,5.40
2018-11-13T03:49:04.845Z,3.77
2018-11-13T03:51:38.588Z,4.67
2018-11-13T03:54:12.584Z,6.60
2018-11-13T03:56:46.405Z,4.40
2018-11-13T03:59:20.047Z,4.13
2018-11-13T04:01:53.753Z,5.80
2018-11-13T04:04:27.509Z,4.93
2018-11-13T04:07:01.464Z,7.37
2018-11-13T04:09:35.120Z,7.43
2018-11-13T04:12:08.866Z,11.03
2018-11-13T04:14:42.639Z,12.93
2018-11-13T04:17:16.533Z,10.17
2018-11-13T04:19:50.337Z,10.40
2018-11-13T04:22:24.171Z,10.07
2018-11-13T04:24:57.901Z,10.73
2018-11-13T04:27:32.414Z,11.47
2018-11-13T04:30:08.396Z,13.33
2018-11-13T04:32:42.574Z,8.30
2018-11-13T04:35:17.402Z,8.53
2018-11-13T04:37:51.236Z,10.30
2018-11-13T04:40:25.128Z,9.23
2018-11-13T04:42:58.858Z,11.33
2018-11-13T04:45:32.727Z,11.20
2018-11-13T04:48:06.639Z,10.00
2018-11-13T04:50:40.611Z,9.40
2018-11-13T04:53:14.314Z,9.90
2018-11-13T04:55:47.976Z,8.70
2018-11-13T04:58:21.818Z,11.10
2018-11-13T05:00:55.648Z,7.40
2018-11-13T05:03:29.486Z,8.03
2018-11-13T05:06:03.100Z,10.40
2018-11-13T05:08:36.950Z,7.07
2018-11-13T05:11:10.822Z,8.40
2018-11-13T05:13:44.583Z,7.93
2018-11-13T05:16:18.211Z,6.23
2018-11-13T05:18:52.243Z,6.90
2018-11-13T05:21:26.041Z,6.33
2018-11-13T05:24:00.024Z,8.10
2018-11-13T05:26:33.743Z,8.47
2018-11-13T05:29:07.455Z,10.17
2018-11-13T05:31:41.375Z,7.57
2018-11-13T05:34:15.378Z,10.23
2018-11-13T05:36:49.206Z,10.17
2018-11-13T05:39:23.173Z,12.93
2018-11-13T05:41:57.156Z,9.47
2018-11-13T05:44:31.218Z,12.77
2018-11-13T05:47:05.245Z,12.90
2018-11-13T05:49:39.221Z,12.60
2018-11-13T05:52:13.046Z,11.03
2018-11-13T05:54:46.848Z,10.63
2018-11-13T05:57:20.757Z,8.83
2018-11-13T05:59:54.895Z,10.30
2018-11-13T06:02:28.723Z,10.67
2018-11-13T06:05:02.783Z,8.87
2018-11-13T06:07:36.659Z,9.20
2018-11-13T06:10:11.441Z,10.13
2018-11-13T06:12:45.315Z,10.07
2018-11-13T06:15:18.917Z,10.43
2018-11-13T06:17:52.756Z,8.17
2018-11-13T06:20:26.551Z,6.30
2018-11-13T06:23:00.355Z,8.03
2018-11-13T06:25:34.226Z,5.97
2018-11-13T06:28:07.886Z,6.17
2018-11-13T06:30:41.778Z,9.40
2018-11-13T06:33:15.552Z,7.23
2018-11-13T06:35:49.424Z,6.30
2018-11-13T06:38:23.299Z,8.63
2018-11-13T06:40:57.133Z,8.00
2018-11-13T06:43:31.096Z,9.13
2018-11-13T06:46:04.980Z,8.67
2018-11-13T06:48:38.869Z,9.90
2018-11-13T06:51:12.616Z,9.33
2018-11-13T06:53:52.075Z,8.27
2018-11-13T06:56:25.988Z,7.23
2018-11-13T06:58:59.826Z,7.67
2018-11-13T07:01:33.712Z,11.20
2018-11-13T07:04:07.593Z,10.10
2018-11-13T07:06:41.267Z,8.67
2018-11-13T07:09:15.228Z,6.83
2018-11-13T07:11:49.151Z,9.87
2018-11-13T07:14:22.977Z,10.70
2018-11-13T07:16:56.681Z,9.80
2018-11-13T07:19:30.596Z,10.77
2018-11-13T07:22:04.353Z,9.30
2018-11-13T07:24:38.163Z,9.33
2018-11-13T07:27:11.876Z,7.37
2018-11-13T07:29:45.672Z,7.63
2018-11-13T07:32:19.592Z,10.17
2018-11-13T07:34:53.369Z,9.97
2018-11-13T07:37:27.139Z,8.60
2018-11-13T07:40:00.849Z,7.30
2018-11-13T07:42:34.693Z,7.50
2018-11-13T07:45:09.564Z,8.87
2018-11-13T07:47:44.315Z,8.60
2018-11-13T07:50:18.052Z,8.20
2018-11-13T07:52:51.805Z,6.13
2018-11-13T07:55:25.669Z,8.07
2018-11-13T07:57:59.649Z,7.63
2018-11-13T08:00:33.508Z,7.17
2018-11-13T08:03:12.944Z,8.33
2018-11-13T08:05:46.788Z,9.70
2018-11-13T08:08:20.520Z,7.17
2018-11-13T08:10:54.273Z,9.27
2018-11-13T08:13:28.305Z,7.37
2018-11-13T08:16:01.977Z,7.73
2018-11-13T08:18:35.916Z,8.00
2018-11-13T08:21:09.815Z,9.20
2018-11-13T08:23:43.605Z,8.10
2018-11-13T08:26:17.361Z,10.33
2018-11-13T08:28:51.047Z,8.67
2018-11-13T08:31:25.112Z,7.50
2018-11-13T08:33:58.837Z,8.27
2018-11-13T08:36:32.765Z,8.90
2018-11-13T08:39:07.739Z,9.27
2018-11-13T08:41:41.692Z,7.67
2018-11-13T08:44:15.542Z,6.53
2018-11-13T08:46:49.184Z,8.67
2018-11-13T08:49:23.067Z,7.87
2018-11-13T08:51:56.739Z,7.30
2018-11-13T08:54:30.507Z,5.67
2018-11-13T08:57:04.244Z,5.43
2018-11-13T08:59:38.132Z,6.17
2018-11-13T09:02:11.926Z,4.57
2018-11-13T09:04:45.520Z,6.47
2018-11-13T09:07:19.118Z,8.13
2018-11-13T09:09:53.076Z,3.63
2018-11-13T09:12:26.987Z,4.77
2018-11-13T09:15:00.668Z,3.93
2018-11-13T09:17:34.303Z,4.90
2018-11-13T09:20:09.225Z,5.07
2018-11-13T09:22:43.008Z,5.33
2018-11-13T09:25:18.120Z,3.73
2018-11-13T09:27:51.824Z,5.73
2018-11-13T09:30:25.562Z,6.33
2018-11-13T09:32:59.328Z,6.10
2018-11-13T09:35:33.124Z,4.47
2018-11-13T09:38:06.850Z,5.53
2018-11-13T09:40:40.428Z,5.30
2018-11-13T09:43:14.270Z,6.43
2018-11-13T09:45:48.114Z,3.87
2018-11-13T09:48:21.898Z,7.47
2018-11-13T09:50:55.623Z,6.97
2018-11-13T09:53:29.603Z,5.33
2018-11-13T09:56:03.507Z,9.20
2018-11-13T09:58:37.463Z,8.40
2018-11-13T10:01:11.469Z,4.57
2018-11-13T10:03:45.686Z,6.70
2018-11-13T10:06:18.982Z,5.33
2018-11-13T10:08:52.687Z,7.60
2018-11-13T10:11:26.531Z,4.80
2018-11-13T10:14:00.404Z,4.70
2018-11-13T10:16:34.238Z,7.77
2018-11-13T10:19:09.058Z,8.83
2018-11-13T10:21:42.654Z,4.80
2018-11-13T10:24:16.298Z,5.53
2018-11-13T10:26:50.060Z,6.27
2018-11-13T10:29:23.845Z,7.10
2018-11-13T10:31:57.767Z,6.27
2018-11-13T10:34:31.383Z,7.00
2018-11-13T10:37:05.279Z,5.10
2018-11-13T10:39:39.113Z,8.43
2018-11-13T10:42:13.011Z,7.23
2018-11-13T10:44:46.639Z,7.73
2018-11-13T10:47:20.580Z,7.53
2018-11-13T10:49:54.488Z,6.73
2018-11-13T10:52:28.378Z,7.90
2018-11-13T10:55:02.068Z,7.87
2018-11-13T10:57:35.988Z,6.07
2018-11-13T11:00:16.616Z,6.17
2018-11-13T11:02:55.966Z,5.70
2018-11-13T11:05:30.135Z,6.33
2018-11-13T11:08:03.995Z,4.77
2018-11-13T11:10:37.919Z,6.50
2018-11-13T11:13:11.861Z,3.67
2018-11-13T11:15:45.454Z,8.10
2018-11-13T11:18:19.215Z,5.17
2018-11-13T11:20:53.139Z,5.30
2018-11-13T11:23:27.074Z,7.87
2018-11-13T11:26:01.032Z,6.00
2018-11-13T11:28:34.779Z,5.00
2018-11-13T11:31:08.507Z,5.17
2018-11-13T11:33:42.111Z,4.70
2018-11-13T11:36:15.948Z,5.57
2018-11-13T11:38:49.660Z,6.63
2018-11-13T11:41:23.478Z,5.13
2018-11-13T11:43:57.297Z,8.43
2018-11-13T11:46:31.120Z,5.03
2018-11-13T11:49:05.198Z,5.53
2018-11-13T11:51:39.029Z,9.07
2018-11-13T11:54:12.985Z,5.47
2018-11-13T11:56:46.779Z,3.53
2018-11-13T11:59:20.610Z,5.77
2018-11-13T12:01:54.495Z,5.00
2018-11-13T12:04:28.436Z,4.53
2018-11-13T12:07:02.211Z,6.47
2018-11-13T12:09:35.986Z,7.43
2018-11-13T12:12:09.721Z,4.57
2018-11-13T12:14:43.428Z,5.73
2018-11-13T12:17:17.227Z,4.77
2018-11-13T12:19:50.975Z,4.90
2018-11-13T12:22:24.825Z,6.10
2018-11-13T12:24:58.495Z,5.83
2018-11-13T12:27:32.378Z,5.57
2018-11-13T12:30:07.804Z,5.13
2018-11-13T12:32:42.035Z,4.73
2018-11-13T12:35:16.808Z,4.80
2018-11-13T12:37:50.763Z,7.27
2018-11-13T12:40:25.277Z,5.00
2018-11-13T12:42:59.011Z,4.83
2018-11-13T12:45:32.972Z,4.67
2018-11-13T12:48:06.558Z,4.23
2018-11-13T12:50:45.604Z,4.43
2018-11-13T12:53:19.537Z,4.73
2018-11-13T12:55:53.559Z,5.43
2018-11-13T12:58:27.512Z,3.43
2018-11-13T13:01:01.941Z,6.90
2018-11-13T13:03:35.664Z,4.73
2018-11-13T13:06:09.316Z,4.43
2018-11-13T13:08:43.166Z,4.23
2018-11-13T13:11:17.007Z,5.10
2018-11-13T13:13:55.176Z,5.47
2018-11-13T13:16:28.981Z,3.20
2018-11-13T13:19:03.072Z,6.73
2018-11-13T13:21:36.831Z,4.90
2018-11-13T13:24:10.767Z,5.27
2018-11-13T13:26:44.536Z,4.97
2018-11-13T13:29:18.491Z,4.33
2018-11-13T13:31:52.489Z,4.87
2018-11-13T13:34:26.161Z,5.47
2018-11-13T13:36:59.971Z,5.07
2018-11-13T13:39:33.652Z,6.90
2018-11-13T13:42:07.315Z,3.77
2018-11-13T13:44:41.091Z,5.20
2018-11-13T13:47:14.825Z,6.33
2018-11-13T13:49:49.519Z,4.37
2018-11-13T13:52:24.115Z,3.30
2018-11-13T13:54:58.023Z,5.23
2018-11-13T13:57:32.268Z,5.77
2018-11-13T14:00:07.692Z,6.47
2018-11-13T14:02:41.522Z,3.23
2018-11-13T14:05:15.426Z,5.00
2018-11-13T14:07:49.208Z,4.53
2018-11-13T14:10:23.137Z,5.77
2018-11-13T14:12:57.268Z,5.27
2018-11-13T14:15:31.203Z,4.50
2018-11-13T14:18:05.156Z,5.00
2018-11-13T14:20:38.987Z,4.53
2018-11-13T14:23:12.781Z,4.43
2018-11-13T14:25:46.712Z,3.70
2018-11-13T14:28:20.397Z,5.83
2018-11-13T14:30:54.289Z,3.13
2018-11-13T14:33:28.044Z,3.50
2018-11-13T14:36:02.140Z,4.23
2018-11-13T14:38:36.001Z,4.97
2018-11-13T14:41:10.066Z,5.57
2018-11-13T14:43:43.938Z,4.60
2018-11-13T14:46:17.933Z,6.37
2018-11-13T14:48:51.856Z,4.80
2018-11-13T14:51:25.730Z,4.50
2018-11-13T14:53:59.710Z,11.53
2018-11-13T14:56:33.520Z,7.00
2018-11-13T14:59:07.887Z,5.00
2018-11-13T15:01:41.741Z,5.90
2018-11-13T15:04:15.426Z,4.20
2018-11-13T15:06:49.279Z,4.60
2018-11-13T15:09:23.120Z,7.30
2018-11-13T15:11:57.119Z,5.50
2018-11-13T15:14:30.953Z,5.00
2018-11-13T15:17:04.970Z,3.13
2018-11-13T15:19:38.985Z,4.40
2018-11-13T15:22:13.005Z,4.97
2018-11-13T15:24:48.794Z,3.47
2018-11-13T15:27:22.853Z,4.30
2018-11-13T15:29:56.695Z,5.73
2018-11-13T15:32:30.701Z,4.43
2018-11-13T15:35:05.120Z,3.80
2018-11-13T15:37:39.148Z,4.50
2018-11-13T15:40:14.869Z,4.10
2018-11-13T15:42:48.741Z,4.60
2018-11-13T15:45:22.409Z,3.53
2018-11-13T15:47:57.038Z,4.30
2018-11-13T15:50:32.463Z,4.17
2018-11-13T15:53:06.662Z,4.07
2018-11-13T15:55:40.468Z,3.07
2018-11-13T15:58:14.199Z,5.20
2018-11-13T16:00:48.071Z,4.20
2018-11-13T16:03:23.770Z,3.10
2018-11-13T16:05:57.634Z,4.20
2018-11-13T16:08:31.401Z,6.03
2018-11-13T16:11:05.251Z,4.73
2018-11-13T16:13:39.081Z,5.03
2018-11-13T16:16:12.749Z,3.40
2018-11-13T16:18:46.540Z,4.90
2018-11-13T16:21:20.397Z,5.67
2018-11-13T16:23:54.794Z,4.37
2018-11-13T16:26:29.496Z,3.13
2018-11-13T16:29:04.067Z,3.10
2018-11-13T16:31:37.977Z,3.70
2018-11-13T16:34:12.764Z,3.53
2018-11-13T16:36:46.751Z,4.70
2018-11-13T16:39:20.720Z,3.77
2018-11-13T16:41:54.567Z,2.77
2018-11-13T16:44:29.057Z,3.93
2018-11-13T16:47:02.966Z,4.00
2018-11-13T16:49:43.531Z,3.97
2018-11-13T16:52:17.269Z,4.50
2018-11-13T16:54:51.877Z,4.17
2018-11-13T16:57:26.144Z,4.80
2018-11-13T17:00:00.224Z,4.83
2018-11-13T17:02:34.383Z,2.73
2018-11-13T17:05:09.224Z,2.73
2018-11-13T17:07:42.943Z,5.60
2018-11-13T17:10:19.813Z,4.60
2018-11-13T17:12:53.883Z,5.70
2018-11-13T17:15:29.369Z,3.97
2018-11-13T17:18:03.924Z,2.67
2018-11-13T17:20:37.832Z,2.13
2018-11-13T17:23:11.662Z,5.00
2018-11-13T17:25:45.614Z,7.30
2018-11-13T17:28:19.475Z,3.43
2018-11-13T17:30:53.211Z,4.23
2018-11-13T17:33:27.287Z,2.07
2018-11-13T17:36:01.570Z,3.00
2018-11-13T17:38:35.543Z,3.80
2018-11-13T17:41:09.217Z,3.90
2018-11-13T17:43:42.970Z,2.43
2018-11-13T17:46:17.933Z,2.27
2018-11-13T17:48:51.945Z,3.67
2018-11-13T17:51:25.790Z,3.03
2018-11-13T17:53:59.476Z,5.43
2018-11-13T17:56:33.357Z,2.57
2018-11-13T17:59:07.246Z,3.13
2018-11-13T18:01:40.864Z,2.93
2018-11-13T18:04:14.492Z,2.70
2018-11-13T18:06:48.263Z,3.70
2018-11-13T18:09:22.212Z,2.60
2018-11-13T18:11:56.143Z,2.53
2018-11-13T18:14:29.858Z,2.13
2018-11-13T18:17:03.630Z,3.63
2018-11-13T18:19:37.379Z,1.80
2018-11-13T18:22:11.753Z,4.40
2018-11-13T18:24:45.373Z,1.90
2018-11-13T18:27:19.202Z,3.57
2018-11-13T18:29:53.378Z,3.37
2018-11-13T18:32:27.255Z,3.53
2018-11-13T18:35:01.077Z,2.57
2018-11-13T18:37:35.094Z,4.03
2018-11-13T18:40:10.229Z,2.40
2018-11-13T18:42:44.912Z,4.40
2018-11-13T18:45:21.652Z,3.60
2018-11-13T18:47:55.492Z,3.37
2018-11-13T18:50:30.545Z,2.47
2018-11-13T18:53:04.383Z,4.23
2018-11-13T18:55:38.220Z,2.27
2018-11-13T18:58:12.098Z,4.33
2018-11-13T19:00:45.937Z,3.23
2018-11-13T19:03:19.769Z,4.13
2018-11-13T19:05:53.667Z,3.37
2018-11-13T19:08:27.599Z,2.20
2018-11-13T19:11:03.163Z,3.57
2018-11-13T19:13:37.011Z,2.87
2018-11-13T19:16:10.839Z,2.47
2018-11-13T19:18:44.824Z,4.37
2018-11-13T19:21:18.488Z,3.70
2018-11-13T19:23:52.399Z,2.63
2018-11-13T19:26:26.349Z,2.90
2018-11-13T19:29:00.299Z,2.37
2018-11-13T19:31:34.267Z,1.97
2018-11-13T19:34:08.072Z,2.13
2018-11-13T19:36:42.028Z,5.53
2018-11-13T19:39:15.717Z,3.23
2018-11-13T19:41:49.720Z,5.87
2018-11-13T19:44:23.715Z,3.53
2018-11-13T19:46:57.564Z,3.43
2018-11-13T19:49:31.366Z,4.80
2018-11-13T19:52:05.686Z,3.00
2018-11-13T19:54:39.508Z,1.23
2018-11-13T19:57:13.482Z,4.60
2018-11-13T19:59:47.311Z,2.63
2018-11-13T20:02:21.119Z,2.40
2018-11-13T20:04:55.052Z,3.27
2018-11-13T20:07:28.796Z,3.20
2018-11-13T20:10:02.655Z,2.77
2018-11-13T20:12:36.445Z,1.73
2018-11-13T20:15:11.249Z,2.23
2018-11-13T20:17:45.125Z,2.87
2018-11-13T20:20:20.020Z,2.10
2018-11-13T20:22:54.481Z,3.73
2018-11-13T20:25:29.711Z,3.63
2018-11-13T20:28:03.669Z,2.80
2018-11-13T20:30:39.941Z,2.53
2018-11-13T20:33:13.865Z,3.17
2018-11-13T20:35:47.830Z,3.17
2018-11-13T20:38:21.750Z,4.57
2018-11-13T20:40:55.604Z,4.17
2018-11-13T20:43:29.561Z,3.23
2018-11-13T20:46:03.366Z,3.00
2018-11-13T20:48:38.179Z,3.37
2018-11-13T20:51:11.934Z,3.70
2018-11-13T20:53:45.866Z,2.10
2018-11-13T20:56:19.714Z,2.73
2018-11-13T20:58:53.659Z,2.67
2018-11-13T21:01:27.579Z,3.67
2018-11-13T21:04:01.445Z,3.27
2018-11-13T21:06:35.253Z,4.97
2018-11-13T21:09:09.127Z,2.70
2018-11-13T21:11:42.903Z,2.17
2018-11-13T21:14:16.722Z,3.57
2018-11-13T21:16:50.833Z,2.37
2018-11-13T21:19:24.696Z,3.87
2018-11-13T21:21:58.561Z,3.53
2018-11-13T21:24:33.295Z,4.23
2018-11-13T21:27:07.435Z,2.87
2018-11-13T21:29:42.007Z,4.37
2018-11-13T21:32:15.857Z,3.37
2018-11-13T21:34:50.047Z,4.23
2018-11-13T21:37:24.546Z,3.63
2018-11-13T21:39:58.618Z,4.27
2018-11-13T21:42:32.355Z,4.90
2018-11-13T21:45:06.526Z,3.33
2018-11-13T21:47:41.022Z,3.57
2018-11-13T21:50:16.962Z,3.53
2018-11-13T21:52:51.001Z,2.93
2018-11-13T21:55:26.690Z,3.37
2018-11-13T21:58:00.459Z,3.50
2018-11-13T22:00:35.198Z,4.10
2018-11-13T22:03:09.324Z,4.53
2018-11-13T22:05:43.161Z,3.10
2018-11-13T22:08:18.010Z,2.83
2018-11-13T22:10:52.806Z,4.50
2018-11-13T22:13:26.762Z,3.47
2018-11-13T22:16:00.495Z,2.83
2018-11-13T22:18:34.360Z,3.03
2018-11-13T22:21:08.263Z,3.07
2018-11-13T22:23:42.064Z,3.20
2018-11-13T22:26:15.992Z,4.30
2018-11-13T22:28:50.202Z,3.20
2018-11-13T22:31:23.955Z,3.07
2018-11-13T22:33:57.946Z,2.07
2018-11-13T22:36:31.992Z,3.67
2018-11-13T22:39:07.055Z,3.00
2018-11-13T22:41:40.729Z,4.73
2018-11-13T22:44:14.468Z,4.17
2018-11-13T22:46:48.388Z,3.07
2018-11-13T22:49:22.121Z,2.53
2018-11-13T22:51:55.914Z,3.10
2018-11-13T22:54:29.868Z,2.13
2018-11-13T22:57:03.685Z,3.73
2018-11-13T22:59:37.532Z,2.33
2018-11-13T23:02:11.519Z,3.10
2018-11-13T23:04:45.178Z,2.13
2018-11-13T23:07:19.075Z,3.27
2018-11-13T23:09:53.020Z,3.17
2018-11-13T23:12:26.947Z,3.83
2018-11-13T23:15:00.709Z,2.77
2018-11-13T23:17:34.629Z,1.70
2018-11-13T23:20:10.220Z,3.80
2018-11-13T23:22:43.972Z,2.60
2018-11-13T23:25:19.180Z,4.70
2018-11-13T23:27:53.093Z,3.13
2018-11-13T23:30:27.790Z,2.77
2018-11-13T23:33:01.798Z,3.57
2018-11-13T23:35:35.669Z,3.40
2018-11-13T23:38:09.570Z,4.30
2018-11-13T23:40:43.366Z,2.00
2018-11-13T23:43:17.147Z,2.53
2018-11-13T23:45:50.823Z,3.27
2018-11-13T23:48:24.689Z,2.33
2018-11-13T23:50:58.414Z,3.47
2018-11-13T23:53:32.228Z,3.27
2018-11-13T23:56:06.406Z,4.03
2018-11-13T23:58:40.300Z,3.20
